sensor_id;sensor_type;location;lat;lon;timestamp;temperature;humidity
23323;DHT22;11833;52.554;13.554;2023-12-07T01:02:43;1.30;99.90
23323;DHT22;11833;52.554;13.554;2023-12-07T01:05:09;1.30;99.90
23323;DHT22;11833;52.554;13.554;2023-12-07T01:07:34;1.30;99.90
23323;DHT22;11833;52.554;13.554;2023-12-07T01:10:00;1.30;99.90
23323;DHT22;11833;52.554;13.554;2023-12-07T01:12:26;1.30;99.90
23323;DHT22;11833;52.554;13.554;2023-12-07T01:14:51;1.30;99.90
23323;DHT22;11833;52.554;13.554;2023-12-07T01:17:18;1.30;99.90
23323;DHT22;11833;52.554;13.554;2023-12-07T01:19:43;1.30;99.90
23323;DHT22;11833;52.554;13.554;2023-12-07T01:22:09;1.20;99.90
23323;DHT22;11833;52.554;13.554;2023-12-07T01:24:35;1.20;99.90
23323;DHT22;11833;52.554;13.554;2023-12-07T01:27:01;1.20;99.90
23323;DHT22;11833;52.554;13.554;2023-12-07T01:29:26;1.20;99.90
23323;DHT22;11833;52.554;13.554;2023-12-07T01:31:52;1.20;99.90
23323;DHT22;11833;52.554;13.554;2023-12-07T01:34:18;1.20;99.90
23323;DHT22;11833;52.554;13.554;2023-12-07T01:36:44;1.20;99.90
23323;DHT22;11833;52.554;13.554;2023-12-07T01:39:10;1.30;99.90
23323;DHT22;11833;52.554;13.554;2023-12-07T01:41:39;1.30;99.90
23323;DHT22;11833;52.554;13.554;2023-12-07T01:44:05;1.30;99.90
23323;DHT22;11833;52.554;13.554;2023-12-07T01:46:32;1.30;99.90
23323;DHT22;11833;52.554;13.554;2023-12-07T01:48:58;1.30;99.90
23323;DHT22;11833;52.554;13.554;2023-12-07T01:51:25;1.20;99.90
23323;DHT22;11833;52.554;13.554;2023-12-07T01:53:52;1.30;99.90
23323;DHT22;11833;52.554;13.554;2023-12-07T01:56:18;1.30;99.90
23323;DHT22;11833;52.554;13.554;2023-12-07T01:58:44;1.30;99.90
23323;DHT22;11833;52.554;13.554;2023-12-07T02:01:10;1.40;99.90
23323;DHT22;11833;52.554;13.554;2023-12-07T02:03:39;1.30;99.90
23323;DHT22;11833;52.554;13.554;2023-12-07T02:06:05;1.30;99.90
23323;DHT22;11833;52.554;13.554;2023-12-07T02:08:32;1.30;99.90
23323;DHT22;11833;52.554;13.554;2023-12-07T02:10:57;1.30;99.90
23323;DHT22;11833;52.554;13.554;2023-12-07T02:13:23;1.30;99.90
23323;DHT22;11833;52.554;13.554;2023-12-07T02:15:49;1.30;99.90
23323;DHT22;11833;52.554;13.554;2023-12-07T02:19:01;1.30;99.90
23323;DHT22;11833;52.554;13.554;2023-12-07T02:21:38;1.30;99.90
23323;DHT22;11833;52.554;13.554;2023-12-07T02:24:06;1.30;99.90
23323;DHT22;11833;52.554;13.554;2023-12-07T02:26:36;1.20;99.90
23323;DHT22;11833;52.554;13.554;2023-12-07T02:29:04;1.30;99.90
23323;DHT22;11833;52.554;13.554;2023-12-07T02:31:30;1.20;99.90
23323;DHT22;11833;52.554;13.554;2023-12-07T02:33:56;1.30;99.90
23323;DHT22;11833;52.554;13.554;2023-12-07T02:40:05;1.30;99.90
23323;DHT22;11833;52.554;13.554;2023-12-07T02:42:36;1.20;99.90
23323;DHT22;11833;52.554;13.554;2023-12-07T02:45:04;1.30;99.90
23323;DHT22;11833;52.554;13.554;2023-12-07T02:47:30;1.20;99.90
23323;DHT22;11833;52.554;13.554;2023-12-07T02:49:56;1.30;99.90
23323;DHT22;11833;52.554;13.554;2023-12-07T02:52:22;1.30;99.90
23323;DHT22;11833;52.554;13.554;2023-12-07T02:54:47;1.30;99.90
23323;DHT22;11833;52.554;13.554;2023-12-07T02:57:13;1.30;99.90
23323;DHT22;11833;52.554;13.554;2023-12-07T02:59:40;1.30;99.90
23323;DHT22;11833;52.554;13.554;2023-12-07T03:02:06;1.30;99.90
23323;DHT22;11833;52.554;13.554;2023-12-07T03:04:32;1.30;99.90
23323;DHT22;11833;52.554;13.554;2023-12-07T03:06:58;1.20;99.90
23323;DHT22;11833;52.554;13.554;2023-12-07T03:09:24;1.30;99.90
23323;DHT22;11833;52.554;13.554;2023-12-07T03:11:50;1.30;99.90
23323;DHT22;11833;52.554;13.554;2023-12-07T03:14:16;1.30;99.90
23323;DHT22;11833;52.554;13.554;2023-12-07T03:16:42;1.30;99.90
23323;DHT22;11833;52.554;13.554;2023-12-07T03:19:08;1.30;99.90
23323;DHT22;11833;52.554;13.554;2023-12-07T03:21:33;1.30;99.90
23323;DHT22;11833;52.554;13.554;2023-12-07T03:23:59;1.30;99.90
23323;DHT22;11833;52.554;13.554;2023-12-07T03:26:25;1.20;99.90
23323;DHT22;11833;52.554;13.554;2023-12-07T03:28:51;1.20;99.90
23323;DHT22;11833;52.554;13.554;2023-12-07T03:31:16;1.20;99.90
23323;DHT22;11833;52.554;13.554;2023-12-07T03:33:42;1.30;99.90
23323;DHT22;11833;52.554;13.554;2023-12-07T03:36:11;1.20;99.90
23323;DHT22;11833;52.554;13.554;2023-12-07T03:38:37;1.30;99.90
23323;DHT22;11833;52.554;13.554;2023-12-07T03:41:03;1.30;99.90
23323;DHT22;11833;52.554;13.554;2023-12-07T03:43:29;1.40;99.90
23323;DHT22;11833;52.554;13.554;2023-12-07T03:45:55;1.40;99.90
23323;DHT22;11833;52.554;13.554;2023-12-07T03:48:21;1.30;99.90
23323;DHT22;11833;52.554;13.554;2023-12-07T03:50:46;1.30;99.90
23323;DHT22;11833;52.554;13.554;2023-12-07T03:53:12;1.30;99.90
23323;DHT22;11833;52.554;13.554;2023-12-07T03:55:38;1.30;99.90
23323;DHT22;11833;52.554;13.554;2023-12-07T03:58:04;1.30;99.90
23323;DHT22;11833;52.554;13.554;2023-12-07T04:00:32;1.30;99.90
23323;DHT22;11833;52.554;13.554;2023-12-07T04:02:58;1.20;99.90
23323;DHT22;11833;52.554;13.554;2023-12-07T04:05:24;1.20;99.90
23323;DHT22;11833;52.554;13.554;2023-12-07T04:07:50;1.20;99.90
23323;DHT22;11833;52.554;13.554;2023-12-07T04:10:16;1.20;99.90
23323;DHT22;11833;52.554;13.554;2023-12-07T04:12:41;1.30;99.90
23323;DHT22;11833;52.554;13.554;2023-12-07T04:15:08;1.20;99.90
23323;DHT22;11833;52.554;13.554;2023-12-07T04:17:34;1.20;99.90
23323;DHT22;11833;52.554;13.554;2023-12-07T04:19:59;1.30;99.90
23323;DHT22;11833;52.554;13.554;2023-12-07T04:22:25;1.30;99.90
23323;DHT22;11833;52.554;13.554;2023-12-07T04:24:51;1.20;99.90
23323;DHT22;11833;52.554;13.554;2023-12-07T04:27:16;1.30;99.90
23323;DHT22;11833;52.554;13.554;2023-12-07T04:29:42;1.20;99.90
23323;DHT22;11833;52.554;13.554;2023-12-07T04:32:08;1.20;99.90
23323;DHT22;11833;52.554;13.554;2023-12-07T04:34:34;1.30;99.90
23323;DHT22;11833;52.554;13.554;2023-12-07T04:37:00;1.30;99.90
23323;DHT22;11833;52.554;13.554;2023-12-07T04:39:25;1.30;99.90
23323;DHT22;11833;52.554;13.554;2023-12-07T04:41:51;1.30;99.90
23323;DHT22;11833;52.554;13.554;2023-12-07T04:44:17;1.30;99.90
23323;DHT22;11833;52.554;13.554;2023-12-07T04:46:43;1.30;99.90
23323;DHT22;11833;52.554;13.554;2023-12-07T04:49:09;1.30;99.90
23323;DHT22;11833;52.554;13.554;2023-12-07T04:51:34;1.30;99.90
23323;DHT22;11833;52.554;13.554;2023-12-07T04:54:00;1.30;99.90
23323;DHT22;11833;52.554;13.554;2023-12-07T04:56:26;1.30;99.90
23323;DHT22;11833;52.554;13.554;2023-12-07T04:58:51;1.30;99.90
23323;DHT22;11833;52.554;13.554;2023-12-07T05:01:17;1.30;99.90
23323;DHT22;11833;52.554;13.554;2023-12-07T05:03:44;1.30;99.90
23323;DHT22;11833;52.554;13.554;2023-12-07T05:06:11;1.30;99.90
23323;DHT22;11833;52.554;13.554;2023-12-07T05:08:38;1.30;99.90
23323;DHT22;11833;52.554;13.554;2023-12-07T05:11:05;1.30;99.90
23323;DHT22;11833;52.554;13.554;2023-12-07T05:13:32;1.30;99.90
23323;DHT22;11833;52.554;13.554;2023-12-07T05:15:59;1.30;99.90
23323;DHT22;11833;52.554;13.554;2023-12-07T05:18:25;1.30;99.90
23323;DHT22;11833;52.554;13.554;2023-12-07T05:20:51;1.30;99.90
23323;DHT22;11833;52.554;13.554;2023-12-07T05:23:17;1.30;99.90
23323;DHT22;11833;52.554;13.554;2023-12-07T05:25:43;1.30;99.90
23323;DHT22;11833;52.554;13.554;2023-12-07T05:28:08;1.30;99.90
23323;DHT22;11833;52.554;13.554;2023-12-07T05:30:36;1.30;99.90
23323;DHT22;11833;52.554;13.554;2023-12-07T05:33:02;1.30;99.90
23323;DHT22;11833;52.554;13.554;2023-12-07T05:35:27;1.30;99.90
23323;DHT22;11833;52.554;13.554;2023-12-07T05:37:53;1.20;99.90
23323;DHT22;11833;52.554;13.554;2023-12-07T05:40:19;1.30;99.90
23323;DHT22;11833;52.554;13.554;2023-12-07T05:42:49;1.30;99.90
23323;DHT22;11833;52.554;13.554;2023-12-07T05:45:15;1.30;99.90
23323;DHT22;11833;52.554;13.554;2023-12-07T05:47:41;1.30;99.90
23323;DHT22;11833;52.554;13.554;2023-12-07T05:50:07;1.30;99.90
23323;DHT22;11833;52.554;13.554;2023-12-07T05:52:33;1.30;99.90
23323;DHT22;11833;52.554;13.554;2023-12-07T05:54:59;1.30;99.90
23323;DHT22;11833;52.554;13.554;2023-12-07T05:57:25;1.20;99.90
23323;DHT22;11833;52.554;13.554;2023-12-07T05:59:51;1.30;99.90
23323;DHT22;11833;52.554;13.554;2023-12-07T06:02:16;1.30;99.90
23323;DHT22;11833;52.554;13.554;2023-12-07T06:04:42;1.20;99.90
23323;DHT22;11833;52.554;13.554;2023-12-07T06:07:08;1.20;99.90
23323;DHT22;11833;52.554;13.554;2023-12-07T06:09:33;1.30;99.90
23323;DHT22;11833;52.554;13.554;2023-12-07T06:11:59;1.30;99.90
23323;DHT22;11833;52.554;13.554;2023-12-07T06:14:25;1.30;99.90
23323;DHT22;11833;52.554;13.554;2023-12-07T06:16:51;1.30;99.90
23323;DHT22;11833;52.554;13.554;2023-12-07T06:19:17;1.30;99.90
23323;DHT22;11833;52.554;13.554;2023-12-07T06:21:43;1.30;99.90
23323;DHT22;11833;52.554;13.554;2023-12-07T06:24:10;1.30;99.90
23323;DHT22;11833;52.554;13.554;2023-12-07T06:26:35;1.30;99.90
23323;DHT22;11833;52.554;13.554;2023-12-07T06:29:01;1.30;99.90
23323;DHT22;11833;52.554;13.554;2023-12-07T06:31:27;1.30;99.90
23323;DHT22;11833;52.554;13.554;2023-12-07T06:33:53;1.30;99.90
23323;DHT22;11833;52.554;13.554;2023-12-07T06:36:23;1.30;99.90
23323;DHT22;11833;52.554;13.554;2023-12-07T06:38:49;1.30;99.90
23323;DHT22;11833;52.554;13.554;2023-12-07T06:41:15;1.30;99.90
23323;DHT22;11833;52.554;13.554;2023-12-07T06:43:41;1.30;99.90
23323;DHT22;11833;52.554;13.554;2023-12-07T06:46:14;1.30;99.90
23323;DHT22;11833;52.554;13.554;2023-12-07T06:48:42;1.30;99.90
23323;DHT22;11833;52.554;13.554;2023-12-07T06:51:07;1.30;99.90
23323;DHT22;11833;52.554;13.554;2023-12-07T06:53:33;1.30;99.90
23323;DHT22;11833;52.554;13.554;2023-12-07T06:55:59;1.30;99.90
23323;DHT22;11833;52.554;13.554;2023-12-07T06:58:25;1.30;99.90
23323;DHT22;11833;52.554;13.554;2023-12-07T07:00:50;1.30;99.90
23323;DHT22;11833;52.554;13.554;2023-12-07T07:03:16;1.30;99.90
23323;DHT22;11833;52.554;13.554;2023-12-07T07:05:42;1.30;99.90
23323;DHT22;11833;52.554;13.554;2023-12-07T07:08:08;1.30;99.90
23323;DHT22;11833;52.554;13.554;2023-12-07T07:10:34;1.30;99.90
23323;DHT22;11833;52.554;13.554;2023-12-07T07:13:01;1.30;99.90
23323;DHT22;11833;52.554;13.554;2023-12-07T07:15:33;1.30;99.90
23323;DHT22;11833;52.554;13.554;2023-12-07T07:18:00;1.30;99.90
23323;DHT22;11833;52.554;13.554;2023-12-07T07:20:26;1.40;99.90
23323;DHT22;11833;52.554;13.554;2023-12-07T07:22:52;1.40;99.90
23323;DHT22;11833;52.554;13.554;2023-12-07T07:25:18;1.30;99.90
23323;DHT22;11833;52.554;13.554;2023-12-07T07:27:45;1.40;99.90
23323;DHT22;11833;52.554;13.554;2023-12-07T07:30:12;1.40;99.90
23323;DHT22;11833;52.554;13.554;2023-12-07T07:32:38;1.40;99.90
23323;DHT22;11833;52.554;13.554;2023-12-07T07:35:04;1.40;99.90
23323;DHT22;11833;52.554;13.554;2023-12-07T07:37:29;1.40;99.90
23323;DHT22;11833;52.554;13.554;2023-12-07T07:39:56;1.40;99.90
23323;DHT22;11833;52.554;13.554;2023-12-07T07:42:21;1.50;99.90
23323;DHT22;11833;52.554;13.554;2023-12-07T07:44:47;1.50;99.90
23323;DHT22;11833;52.554;13.554;2023-12-07T07:47:13;1.40;99.90
23323;DHT22;11833;52.554;13.554;2023-12-07T07:49:38;1.40;99.90
23323;DHT22;11833;52.554;13.554;2023-12-07T07:52:04;1.40;99.90
23323;DHT22;11833;52.554;13.554;2023-12-07T07:54:30;1.40;99.90
23323;DHT22;11833;52.554;13.554;2023-12-07T07:56:57;1.40;99.90
23323;DHT22;11833;52.554;13.554;2023-12-07T07:59:22;1.50;99.90
23323;DHT22;11833;52.554;13.554;2023-12-07T08:01:48;1.40;99.90
23323;DHT22;11833;52.554;13.554;2023-12-07T08:04:15;1.50;99.90
23323;DHT22;11833;52.554;13.554;2023-12-07T08:06:41;1.50;99.90
23323;DHT22;11833;52.554;13.554;2023-12-07T08:09:08;1.50;99.90
23323;DHT22;11833;52.554;13.554;2023-12-07T08:11:35;1.50;99.90
23323;DHT22;11833;52.554;13.554;2023-12-07T08:14:00;1.50;99.90
23323;DHT22;11833;52.554;13.554;2023-12-07T08:16:26;1.50;99.90
23323;DHT22;11833;52.554;13.554;2023-12-07T08:18:53;1.60;99.90
23323;DHT22;11833;52.554;13.554;2023-12-07T08:21:23;1.60;99.90
23323;DHT22;11833;52.554;13.554;2023-12-07T08:23:49;1.60;99.90
23323;DHT22;11833;52.554;13.554;2023-12-07T08:26:16;1.60;99.90
23323;DHT22;11833;52.554;13.554;2023-12-07T08:28:43;1.60;99.90
23323;DHT22;11833;52.554;13.554;2023-12-07T08:31:09;1.70;99.90
23323;DHT22;11833;52.554;13.554;2023-12-07T08:33:36;1.80;99.90
23323;DHT22;11833;52.554;13.554;2023-12-07T08:36:05;1.70;99.90
23323;DHT22;11833;52.554;13.554;2023-12-07T08:38:31;1.70;99.90
23323;DHT22;11833;52.554;13.554;2023-12-07T08:40:58;1.70;99.90
23323;DHT22;11833;52.554;13.554;2023-12-07T08:43:24;1.70;99.90
23323;DHT22;11833;52.554;13.554;2023-12-07T08:45:53;1.80;99.90
23323;DHT22;11833;52.554;13.554;2023-12-07T08:48:22;1.70;99.90
23323;DHT22;11833;52.554;13.554;2023-12-07T08:50:48;1.70;99.90
23323;DHT22;11833;52.554;13.554;2023-12-07T08:53:13;1.60;99.90
23323;DHT22;11833;52.554;13.554;2023-12-07T08:55:39;1.70;99.90
23323;DHT22;11833;52.554;13.554;2023-12-07T08:58:05;1.70;99.90
23323;DHT22;11833;52.554;13.554;2023-12-07T09:00:31;1.70;99.90
23323;DHT22;11833;52.554;13.554;2023-12-07T09:02:57;1.80;99.90
23323;DHT22;11833;52.554;13.554;2023-12-07T09:05:24;1.80;99.90
23323;DHT22;11833;52.554;13.554;2023-12-07T09:07:51;1.80;99.90
23323;DHT22;11833;52.554;13.554;2023-12-07T09:10:18;1.80;99.90
23323;DHT22;11833;52.554;13.554;2023-12-07T09:12:44;1.80;99.90
23323;DHT22;11833;52.554;13.554;2023-12-07T09:15:10;1.80;99.90
23323;DHT22;11833;52.554;13.554;2023-12-07T09:17:38;1.80;99.90
23323;DHT22;11833;52.554;13.554;2023-12-07T09:20:11;1.80;99.90
23323;DHT22;11833;52.554;13.554;2023-12-07T09:22:43;1.80;99.90
23323;DHT22;11833;52.554;13.554;2023-12-07T09:25:10;1.90;99.90
23323;DHT22;11833;52.554;13.554;2023-12-07T09:27:37;1.80;99.90
23323;DHT22;11833;52.554;13.554;2023-12-07T09:30:09;1.80;99.90
23323;DHT22;11833;52.554;13.554;2023-12-07T09:32:42;1.90;99.90
23323;DHT22;11833;52.554;13.554;2023-12-07T09:35:09;1.90;99.90
23323;DHT22;11833;52.554;13.554;2023-12-07T09:37:44;2.00;99.90
23323;DHT22;11833;52.554;13.554;2023-12-07T09:40:21;2.00;99.90
23323;DHT22;11833;52.554;13.554;2023-12-07T09:42:48;1.90;99.90
23323;DHT22;11833;52.554;13.554;2023-12-07T09:45:15;1.90;99.90
23323;DHT22;11833;52.554;13.554;2023-12-07T09:47:48;2.00;99.90
23323;DHT22;11833;52.554;13.554;2023-12-07T09:50:19;2.00;99.90
23323;DHT22;11833;52.554;13.554;2023-12-07T09:52:52;2.00;99.90
23323;DHT22;11833;52.554;13.554;2023-12-07T09:55:22;2.00;99.90
23323;DHT22;11833;52.554;13.554;2023-12-07T09:57:51;2.00;99.90
23323;DHT22;11833;52.554;13.554;2023-12-07T10:00:20;2.00;99.90
23323;DHT22;11833;52.554;13.554;2023-12-07T10:02:46;2.00;99.90
23323;DHT22;11833;52.554;13.554;2023-12-07T10:05:13;2.00;99.90
23323;DHT22;11833;52.554;13.554;2023-12-07T10:07:45;1.90;99.90
23323;DHT22;11833;52.554;13.554;2023-12-07T10:10:13;1.90;99.90
23323;DHT22;11833;52.554;13.554;2023-12-07T10:12:48;1.90;99.90
23323;DHT22;11833;52.554;13.554;2023-12-07T10:15:18;1.90;99.90
23323;DHT22;11833;52.554;13.554;2023-12-07T10:20:21;1.90;99.90
23323;DHT22;11833;52.554;13.554;2023-12-07T10:23:04;1.90;99.90
23323;DHT22;11833;52.554;13.554;2023-12-07T10:25:41;2.00;99.90
23323;DHT22;11833;52.554;13.554;2023-12-07T10:28:08;2.00;99.90
23323;DHT22;11833;52.554;13.554;2023-12-07T10:30:37;2.00;99.90
23323;DHT22;11833;52.554;13.554;2023-12-07T10:33:03;2.00;99.90
23323;DHT22;11833;52.554;13.554;2023-12-07T10:35:30;2.00;99.90
23323;DHT22;11833;52.554;13.554;2023-12-07T10:37:57;1.90;99.90
23323;DHT22;11833;52.554;13.554;2023-12-07T10:40:23;2.00;99.90
23323;DHT22;11833;52.554;13.554;2023-12-07T10:42:49;2.00;99.90
23323;DHT22;11833;52.554;13.554;2023-12-07T10:45:21;2.00;99.90
23323;DHT22;11833;52.554;13.554;2023-12-07T10:47:48;2.00;99.90
23323;DHT22;11833;52.554;13.554;2023-12-07T10:50:16;1.90;99.90
23323;DHT22;11833;52.554;13.554;2023-12-07T10:52:52;2.00;99.90
23323;DHT22;11833;52.554;13.554;2023-12-07T10:55:21;2.00;99.90
23323;DHT22;11833;52.554;13.554;2023-12-07T10:57:56;2.10;99.90
23323;DHT22;11833;52.554;13.554;2023-12-07T11:00:25;2.10;99.90
23323;DHT22;11833;52.554;13.554;2023-12-07T11:02:55;2.00;99.90
23323;DHT22;11833;52.554;13.554;2023-12-07T11:05:21;2.10;99.90
23323;DHT22;11833;52.554;13.554;2023-12-07T11:08:09;2.00;99.90
23323;DHT22;11833;52.554;13.554;2023-12-07T11:10:58;2.10;99.90
23323;DHT22;11833;52.554;13.554;2023-12-07T11:13:29;2.00;99.90
23323;DHT22;11833;52.554;13.554;2023-12-07T11:15:57;2.00;99.90
23323;DHT22;11833;52.554;13.554;2023-12-07T11:18:27;2.10;99.90
23323;DHT22;11833;52.554;13.554;2023-12-07T11:20:54;2.10;99.90
23323;DHT22;11833;52.554;13.554;2023-12-07T11:23:21;2.10;99.90
23323;DHT22;11833;52.554;13.554;2023-12-07T11:25:48;2.10;99.90
23323;DHT22;11833;52.554;13.554;2023-12-07T11:28:15;2.20;99.90
23323;DHT22;11833;52.554;13.554;2023-12-07T11:30:44;2.20;99.90
23323;DHT22;11833;52.554;13.554;2023-12-07T11:33:10;2.30;99.90
23323;DHT22;11833;52.554;13.554;2023-12-07T11:38:28;2.30;99.90
23323;DHT22;11833;52.554;13.554;2023-12-07T11:40:55;2.30;99.90
23323;DHT22;11833;52.554;13.554;2023-12-07T11:46:02;2.40;99.90
23323;DHT22;11833;52.554;13.554;2023-12-07T11:48:28;2.40;99.90
23323;DHT22;11833;52.554;13.554;2023-12-07T11:50:58;2.30;99.90
23323;DHT22;11833;52.554;13.554;2023-12-07T11:53:28;2.30;99.90
23323;DHT22;11833;52.554;13.554;2023-12-07T11:55:58;2.40;99.90
23323;DHT22;11833;52.554;13.554;2023-12-07T11:58:27;2.50;99.90
23323;DHT22;11833;52.554;13.554;2023-12-07T12:00:53;2.60;99.90
23323;DHT22;11833;52.554;13.554;2023-12-07T12:03:22;2.60;99.90
23323;DHT22;11833;52.554;13.554;2023-12-07T12:05:48;2.60;99.90
23323;DHT22;11833;52.554;13.554;2023-12-07T12:08:15;2.50;99.90
23323;DHT22;11833;52.554;13.554;2023-12-07T12:10:42;2.50;99.90
23323;DHT22;11833;52.554;13.554;2023-12-07T12:13:10;2.50;99.90
23323;DHT22;11833;52.554;13.554;2023-12-07T12:15:39;2.40;99.90
23323;DHT22;11833;52.554;13.554;2023-12-07T12:18:05;2.40;99.90
23323;DHT22;11833;52.554;13.554;2023-12-07T12:20:31;2.40;99.90
23323;DHT22;11833;52.554;13.554;2023-12-07T12:22:58;2.40;99.90
23323;DHT22;11833;52.554;13.554;2023-12-07T12:25:26;2.40;99.90
23323;DHT22;11833;52.554;13.554;2023-12-07T12:28:02;2.40;99.90
23323;DHT22;11833;52.554;13.554;2023-12-07T12:30:29;2.40;99.90
23323;DHT22;11833;52.554;13.554;2023-12-07T12:32:56;2.40;99.90
23323;DHT22;11833;52.554;13.554;2023-12-07T12:35:22;2.30;99.90
23323;DHT22;11833;52.554;13.554;2023-12-07T12:37:49;2.40;99.90
23323;DHT22;11833;52.554;13.554;2023-12-07T12:40:19;2.50;99.90
23323;DHT22;11833;52.554;13.554;2023-12-07T12:42:49;2.40;99.90
23323;DHT22;11833;52.554;13.554;2023-12-07T12:45:17;2.40;99.90
23323;DHT22;11833;52.554;13.554;2023-12-07T12:47:47;2.30;99.90
23323;DHT22;11833;52.554;13.554;2023-12-07T12:53:00;2.30;99.90
23323;DHT22;11833;52.554;13.554;2023-12-07T12:55:28;2.30;99.90
23323;DHT22;11833;52.554;13.554;2023-12-07T12:57:55;2.20;99.90
23323;DHT22;11833;52.554;13.554;2023-12-07T13:00:23;2.20;99.90
23323;DHT22;11833;52.554;13.554;2023-12-07T13:02:50;2.30;99.90
23323;DHT22;11833;52.554;13.554;2023-12-07T13:05:16;2.20;99.90
23323;DHT22;11833;52.554;13.554;2023-12-07T13:07:44;2.20;99.90
23323;DHT22;11833;52.554;13.554;2023-12-07T13:10:10;2.10;99.90
23323;DHT22;11833;52.554;13.554;2023-12-07T13:12:36;2.10;99.90
23323;DHT22;11833;52.554;13.554;2023-12-07T13:15:01;2.10;99.90
23323;DHT22;11833;52.554;13.554;2023-12-07T13:17:27;2.10;99.90
23323;DHT22;11833;52.554;13.554;2023-12-07T13:19:53;2.20;99.90
23323;DHT22;11833;52.554;13.554;2023-12-07T13:22:19;2.20;99.90
23323;DHT22;11833;52.554;13.554;2023-12-07T13:24:48;2.20;99.90
23323;DHT22;11833;52.554;13.554;2023-12-07T13:27:15;2.20;99.90
23323;DHT22;11833;52.554;13.554;2023-12-07T13:29:41;2.20;99.90
23323;DHT22;11833;52.554;13.554;2023-12-07T13:32:07;2.20;99.90
23323;DHT22;11833;52.554;13.554;2023-12-07T13:34:33;2.20;99.90
23323;DHT22;11833;52.554;13.554;2023-12-07T13:36:59;2.20;99.90
23323;DHT22;11833;52.554;13.554;2023-12-07T13:39:25;2.10;99.90
23323;DHT22;11833;52.554;13.554;2023-12-07T13:41:52;2.20;99.90
23323;DHT22;11833;52.554;13.554;2023-12-07T13:44:18;2.10;99.90
23323;DHT22;11833;52.554;13.554;2023-12-07T13:46:44;2.10;99.90
23323;DHT22;11833;52.554;13.554;2023-12-07T13:49:10;2.10;99.90
23323;DHT22;11833;52.554;13.554;2023-12-07T13:51:38;2.10;99.90
23323;DHT22;11833;52.554;13.554;2023-12-07T13:54:04;2.10;99.90
23323;DHT22;11833;52.554;13.554;2023-12-07T13:56:29;2.10;99.90
23323;DHT22;11833;52.554;13.554;2023-12-07T13:58:55;2.10;99.90
23323;DHT22;11833;52.554;13.554;2023-12-07T14:01:21;2.10;99.90
23323;DHT22;11833;52.554;13.554;2023-12-07T14:03:47;2.10;99.90
23323;DHT22;11833;52.554;13.554;2023-12-07T14:06:22;2.10;99.90
23323;DHT22;11833;52.554;13.554;2023-12-07T14:08:49;2.00;99.90
23323;DHT22;11833;52.554;13.554;2023-12-07T14:11:16;2.00;99.90
23323;DHT22;11833;52.554;13.554;2023-12-07T14:13:42;2.00;99.90
23323;DHT22;11833;52.554;13.554;2023-12-07T14:16:08;2.10;99.90
23323;DHT22;11833;52.554;13.554;2023-12-07T14:18:34;2.10;99.90
23323;DHT22;11833;52.554;13.554;2023-12-07T14:21:00;2.00;99.90
23323;DHT22;11833;52.554;13.554;2023-12-07T14:23:26;2.00;99.90
23323;DHT22;11833;52.554;13.554;2023-12-07T14:25:52;2.00;99.90
23323;DHT22;11833;52.554;13.554;2023-12-07T14:28:21;2.00;99.90
23323;DHT22;11833;52.554;13.554;2023-12-07T14:30:47;2.00;99.90
23323;DHT22;11833;52.554;13.554;2023-12-07T14:33:13;2.00;99.90
23323;DHT22;11833;52.554;13.554;2023-12-07T14:35:38;2.00;99.90
23323;DHT22;11833;52.554;13.554;2023-12-07T14:38:04;2.00;99.90
23323;DHT22;11833;52.554;13.554;2023-12-07T14:40:30;2.00;99.90
23323;DHT22;11833;52.554;13.554;2023-12-07T14:42:56;2.00;99.90
23323;DHT22;11833;52.554;13.554;2023-12-07T14:45:22;2.00;99.90
23323;DHT22;11833;52.554;13.554;2023-12-07T14:47:48;2.00;99.90
23323;DHT22;11833;52.554;13.554;2023-12-07T14:50:14;2.00;99.90
23323;DHT22;11833;52.554;13.554;2023-12-07T14:52:40;2.00;99.90
23323;DHT22;11833;52.554;13.554;2023-12-07T14:55:06;2.10;99.90
23323;DHT22;11833;52.554;13.554;2023-12-07T14:57:32;2.10;99.90
23323;DHT22;11833;52.554;13.554;2023-12-07T14:59:58;2.10;99.90
23323;DHT22;11833;52.554;13.554;2023-12-07T15:02:24;2.10;99.90
23323;DHT22;11833;52.554;13.554;2023-12-07T15:04:50;2.00;99.90
23323;DHT22;11833;52.554;13.554;2023-12-07T15:07:16;2.10;99.90
23323;DHT22;11833;52.554;13.554;2023-12-07T15:09:42;2.10;99.90
23323;DHT22;11833;52.554;13.554;2023-12-07T15:12:08;2.10;99.90
23323;DHT22;11833;52.554;13.554;2023-12-07T15:14:33;2.10;99.90
23323;DHT22;11833;52.554;13.554;2023-12-07T15:16:59;2.00;99.90
23323;DHT22;11833;52.554;13.554;2023-12-07T15:19:25;2.00;99.90
23323;DHT22;11833;52.554;13.554;2023-12-07T15:21:51;2.10;99.90
23323;DHT22;11833;52.554;13.554;2023-12-07T15:24:17;2.10;99.90
23323;DHT22;11833;52.554;13.554;2023-12-07T15:26:43;2.10;99.90
23323;DHT22;11833;52.554;13.554;2023-12-07T15:29:09;2.10;99.90
23323;DHT22;11833;52.554;13.554;2023-12-07T15:31:35;2.00;99.90
23323;DHT22;11833;52.554;13.554;2023-12-07T15:34:01;2.00;99.90
23323;DHT22;11833;52.554;13.554;2023-12-07T15:36:26;2.10;99.90
23323;DHT22;11833;52.554;13.554;2023-12-07T15:38:52;2.10;99.90
23323;DHT22;11833;52.554;13.554;2023-12-07T15:41:19;2.10;99.90
23323;DHT22;11833;52.554;13.554;2023-12-07T15:43:44;2.00;99.90
23323;DHT22;11833;52.554;13.554;2023-12-07T15:46:10;2.00;99.90
23323;DHT22;11833;52.554;13.554;2023-12-07T15:48:36;2.10;99.90
23323;DHT22;11833;52.554;13.554;2023-12-07T15:51:02;2.10;99.90
23323;DHT22;11833;52.554;13.554;2023-12-07T15:53:28;2.00;99.90
23323;DHT22;11833;52.554;13.554;2023-12-07T15:55:54;2.10;99.90
23323;DHT22;11833;52.554;13.554;2023-12-07T15:58:20;2.10;99.90
23323;DHT22;11833;52.554;13.554;2023-12-07T16:00:45;2.20;99.90
23323;DHT22;11833;52.554;13.554;2023-12-07T16:03:11;2.10;99.90
23323;DHT22;11833;52.554;13.554;2023-12-07T16:05:37;2.10;99.90
23323;DHT22;11833;52.554;13.554;2023-12-07T16:08:04;2.10;99.90
23323;DHT22;11833;52.554;13.554;2023-12-07T16:10:29;2.10;99.90
23323;DHT22;11833;52.554;13.554;2023-12-07T16:12:55;2.10;99.90
23323;DHT22;11833;52.554;13.554;2023-12-07T16:15:21;2.10;99.90
23323;DHT22;11833;52.554;13.554;2023-12-07T16:17:47;2.10;99.90
23323;DHT22;11833;52.554;13.554;2023-12-07T16:20:13;2.00;99.90
23323;DHT22;11833;52.554;13.554;2023-12-07T16:22:43;2.00;99.90
23323;DHT22;11833;52.554;13.554;2023-12-07T16:25:09;2.00;99.90
23323;DHT22;11833;52.554;13.554;2023-12-07T16:27:35;2.00;99.90
23323;DHT22;11833;52.554;13.554;2023-12-07T16:30:00;2.10;99.90
23323;DHT22;11833;52.554;13.554;2023-12-07T16:32:26;2.10;99.90
23323;DHT22;11833;52.554;13.554;2023-12-07T16:34:52;2.10;99.90
23323;DHT22;11833;52.554;13.554;2023-12-07T16:37:17;2.10;99.90
23323;DHT22;11833;52.554;13.554;2023-12-07T16:39:43;2.00;99.90
23323;DHT22;11833;52.554;13.554;2023-12-07T16:42:12;2.10;99.90
23323;DHT22;11833;52.554;13.554;2023-12-07T16:44:39;2.00;99.90